Time;durP1;ratioP1;P1;durP2;ratioP2;P2;SDS_P1;SDS_P2;PMS_P1;PMS_P2;Temp;Humidity;BMP_temperature;BMP_pressure;BME280_temperature;BME280_humidity;BME280_pressure;Samples;Min_cycle;Max_cycle;Signal;HPM_P1;HPM_P2
2022/06/18 00:00:42;;;;;;;32.05;20.23;;;20.10;99.90;;;;;;5037291;28;20401;-75
2022/06/18 00:03:09;;;;;;;30.52;19.65;;;20.10;99.90;;;;;;5054999;28;20043;-75
2022/06/18 00:05:36;;;;;;;30.58;20.00;;;20.10;99.90;;;;;;5054900;28;20083;-75
2022/06/18 00:08:06;;;;;;;32.45;20.52;;;20.00;99.90;;;;;;5054882;28;20496;-75
2022/06/18 00:10:33;;;;;;;32.75;23.60;;;20.00;99.90;;;;;;5054592;28;20492;-75
2022/06/18 00:13:41;;;;;;;29.63;20.90;;;19.80;99.90;;;;;;5036985;28;20106;-75
2022/06/18 00:16:19;;;;;;;33.65;23.50;;;19.80;99.90;;;;;;5054579;28;20124;-75
2022/06/18 00:18:46;;;;;;;32.83;23.27;;;19.70;99.90;;;;;;5037040;28;20408;-75
2022/06/18 00:21:22;;;;;;;37.15;25.23;;;19.60;99.90;;;;;;5054671;28;20037;-75
2022/06/18 00:23:48;;;;;;;34.58;23.50;;;19.50;99.90;;;;;;5054643;28;20087;-75
2022/06/18 00:26:14;;;;;;;41.53;24.58;;;19.40;99.90;;;;;;5036575;28;20053;-75
2022/06/18 00:28:40;;;;;;;30.42;23.67;;;19.30;99.90;;;;;;5054532;28;20040;-75
2022/06/18 00:31:06;;;;;;;33.78;24.15;;;19.30;99.90;;;;;;5054465;28;20075;-75
2022/06/18 00:33:40;;;;;;;41.83;24.55;;;19.20;99.90;;;;;;5054343;28;20396;-75
2022/06/18 00:36:11;;;;;;;37.15;24.10;;;19.20;99.90;;;;;;5054236;28;20396;-75
2022/06/18 00:38:42;;;;;;;40.42;24.10;;;19.10;99.90;;;;;;5054403;28;20036;-75
2022/06/18 00:41:15;;;;;;;38.97;25.55;;;19.00;99.90;;;;;;5054200;28;20091;-75
2022/06/18 00:43:47;;;;;;;;;;;19.00;99.90;;;;;;5054342;28;20512;-75
2022/06/18 00:46:37;;;;;;;36.65;25.05;;;18.90;99.90;;;;;;5054227;28;20012;-75
2022/06/18 00:49:11;;;;;;;34.58;24.55;;;18.90;99.90;;;;;;5036464;28;20074;-75
2022/06/18 00:51:43;;;;;;;38.20;26.02;;;18.90;99.90;;;;;;5054086;28;20041;-75
2022/06/18 00:54:21;;;;;;;37.63;26.10;;;18.90;99.90;;;;;;5054022;28;20439;-75
2022/06/18 00:57:00;;;;;;;35.00;23.77;;;18.90;99.90;;;;;;5054299;28;20045;-75
2022/06/18 00:59:47;;;;;;;38.58;26.42;;;18.90;99.90;;;;;;5054053;28;20041;-75
2022/06/18 01:02:38;;;;;;;38.13;25.75;;;18.80;99.90;;;;;;5036421;28;20052;-75
2022/06/18 01:05:25;;;;;;;39.25;25.55;;;18.70;99.90;;;;;;5053205;28;20080;-75
2022/06/18 01:08:01;;;;;;;39.60;24.60;;;18.60;99.90;;;;;;5053658;28;20493;-75
2022/06/18 01:10:31;;;;;;;42.05;26.00;;;18.60;99.90;;;;;;5036113;28;20049;-75
2022/06/18 01:12:58;;;;;;;41.55;27.08;;;18.50;99.90;;;;;;5053756;28;20041;-75
2022/06/18 01:15:24;;;;;;;44.63;29.58;;;18.40;99.90;;;;;;5053529;28;20040;-75
2022/06/18 01:17:53;;;;;;;42.22;28.40;;;18.40;99.90;;;;;;5035699;28;20037;-75
2022/06/18 01:20:19;;;;;;;43.25;28.63;;;18.30;99.90;;;;;;5053696;28;20124;-75
2022/06/18 01:23:07;;;;;;;49.30;31.67;;;18.30;99.90;;;;;;5053838;28;20068;-75
2022/06/18 01:25:33;;;;;;;49.00;32.90;;;18.30;99.90;;;;;;5053528;28;20076;-75
2022/06/18 01:27:58;;;;;;;51.70;32.65;;;18.30;99.90;;;;;;5034938;28;20087;-75
2022/06/18 01:30:30;;;;;;;50.22;33.80;;;18.20;99.90;;;;;;5053606;28;20052;-75
2022/06/18 01:32:57;;;;;;;57.08;36.05;;;18.20;99.90;;;;;;5035936;28;20037;-75
2022/06/18 01:35:23;;;;;;;57.33;34.25;;;18.20;99.90;;;;;;5053477;28;20041;-75
2022/06/18 01:37:49;;;;;;;54.55;36.65;;;18.10;99.90;;;;;;5035939;28;20049;-75
2022/06/18 01:40:23;;;;;;;59.33;36.05;;;18.10;99.90;;;;;;5035595;28;20047;-75
2022/06/18 01:42:51;;;;;;;59.45;34.50;;;18.20;99.90;;;;;;5053290;28;20051;-75
2022/06/18 01:45:30;;;;;;;48.28;28.83;;;18.10;99.90;;;;;;5035449;28;20099;-75
2022/06/18 01:48:18;;;;;;;45.95;28.10;;;18.10;99.90;;;;;;5035560;28;20127;-75
2022/06/18 01:50:51;;;;;;;47.35;27.73;;;18.20;99.90;;;;;;5053347;28;20059;-75
2022/06/18 01:53:25;;;;;;;55.20;29.02;;;18.10;99.90;;;;;;5035735;28;20045;-75
2022/06/18 01:56:06;;;;;;;62.03;29.15;;;18.10;99.90;;;;;;5053245;28;20374;-75
2022/06/18 01:58:47;;;;;;;52.55;27.60;;;18.10;99.90;;;;;;5035729;28;20120;-75
2022/06/18 02:01:24;;;;;;;59.90;26.92;;;18.10;99.90;;;;;;5053113;28;20049;-75
2022/06/18 02:03:54;;;;;;;52.22;26.95;;;18.10;99.90;;;;;;5053175;28;20071;-75
2022/06/18 02:06:20;;;;;;;62.70;30.40;;;18.10;99.90;;;;;;5035341;28;20102;-75
2022/06/18 02:08:46;;;;;;;50.67;28.67;;;18.00;99.90;;;;;;5053201;28;20041;-75
2022/06/18 02:11:15;;;;;;;52.83;28.92;;;18.00;99.90;;;;;;5052999;28;20110;-75
2022/06/18 02:13:48;;;;;;;59.90;29.83;;;18.00;99.90;;;;;;5035124;28;20125;-75
2022/06/18 02:16:21;;;;;;;56.97;29.50;;;17.90;99.90;;;;;;5053198;28;20045;-75
2022/06/18 02:18:48;;;;;;;50.53;29.20;;;17.80;99.90;;;;;;5035167;28;20049;-75
2022/06/18 02:21:16;;;;;;;54.08;30.02;;;17.70;99.90;;;;;;5035139;28;20085;-75
2022/06/18 02:23:42;;;;;;;61.08;30.88;;;17.80;99.90;;;;;;5035248;28;20048;-75
2022/06/18 02:26:08;;;;;;;61.63;31.17;;;17.80;99.90;;;;;;5052706;28;20083;-75
2022/06/18 02:28:38;;;;;;;61.55;31.80;;;17.70;99.90;;;;;;5035048;28;20052;-75
2022/06/18 02:31:04;;;;;;;57.92;31.10;;;17.70;99.90;;;;;;5053031;28;20062;-75
2022/06/18 02:33:41;;;;;;;57.70;34.45;;;17.70;99.90;;;;;;5035077;28;20042;-75
2022/06/18 02:36:14;;;;;;;60.75;32.70;;;17.60;99.90;;;;;;5052948;28;20501;-75
2022/06/18 02:38:41;;;;;;;62.05;32.85;;;17.60;99.90;;;;;;5054994;28;20041;-75
2022/06/18 02:41:08;;;;;;;60.92;32.17;;;17.50;99.90;;;;;;5056392;28;20557;-75
2022/06/18 02:43:34;;;;;;;70.82;34.47;;;17.50;99.90;;;;;;5056130;28;20060;-75
2022/06/18 02:46:00;;;;;;;61.22;33.50;;;17.50;99.90;;;;;;5038470;28;20187;-75
2022/06/18 02:48:30;;;;;;;71.70;35.28;;;17.50;99.90;;;;;;5056626;28;20060;-75
2022/06/18 02:50:58;;;;;;;65.70;34.80;;;17.40;99.90;;;;;;5038540;28;20053;-75
2022/06/18 02:53:25;;;;;;;58.28;34.13;;;17.40;99.90;;;;;;5055982;28;20460;-75
2022/06/18 02:55:55;;;;;;;64.93;35.00;;;17.40;99.90;;;;;;5038137;28;20045;-75
2022/06/18 02:58:27;;;;;;;61.83;33.22;;;17.30;99.90;;;;;;5038268;28;20048;-75
2022/06/18 03:00:59;;;;;;;60.08;34.20;;;17.40;99.90;;;;;;5037722;28;20080;-75
2022/06/18 03:03:31;;;;;;;61.65;34.78;;;17.30;99.90;;;;;;5055273;28;20087;-75
2022/06/18 03:05:56;;;;;;;74.30;36.47;;;17.30;99.90;;;;;;5036832;28;20048;-75
2022/06/18 03:08:24;;;;;;;71.47;36.70;;;17.30;99.90;;;;;;5056005;28;20279;-75
2022/06/18 03:13:36;;;;;;;71.70;36.33;;;17.20;99.90;;;;;;5037898;28;20064;-75
2022/06/18 03:16:03;;;;;;;76.22;35.45;;;17.30;99.90;;;;;;5037715;28;20064;-75
2022/06/18 03:18:30;;;;;;;60.08;33.90;;;17.30;99.90;;;;;;5055544;28;20120;-75
2022/06/18 03:21:09;;;;;;;68.60;36.50;;;17.30;99.90;;;;;;5037936;28;20049;-75
2022/06/18 03:23:36;;;;;;;66.57;36.08;;;17.20;99.90;;;;;;5037622;28;20096;-75
2022/06/18 03:26:02;;;;;;;71.13;36.20;;;17.20;99.90;;;;;;5055387;28;20075;-75
2022/06/18 03:28:28;;;;;;;72.93;36.63;;;17.20;99.90;;;;;;5037713;28;20068;-75
2022/06/18 03:30:54;;;;;;;73.50;39.03;;;17.10;99.90;;;;;;5055527;28;20048;-75
2022/06/18 03:33:20;;;;;;;69.70;36.42;;;17.20;99.90;;;;;;5055241;28;20540;-75
2022/06/18 03:35:48;;;;;;;73.70;36.65;;;17.20;99.90;;;;;;5055395;28;20123;-75
2022/06/18 03:38:15;;;;;;;66.78;35.78;;;17.20;99.90;;;;;;5037621;28;20111;-75
2022/06/18 03:40:43;;;;;;;81.57;38.42;;;17.20;99.90;;;;;;5055435;28;20041;-75
2022/06/18 03:43:09;;;;;;;77.47;37.92;;;17.20;99.90;;;;;;5055009;28;20126;-75
2022/06/18 03:45:39;;;;;;;81.57;39.95;;;17.20;99.90;;;;;;5055317;28;20468;-75
2022/06/18 03:48:06;;;;;;;77.78;40.00;;;17.20;99.90;;;;;;5037151;28;20445;-75
2022/06/18 03:50:32;;;;;;;91.53;41.10;;;17.20;99.90;;;;;;5054665;28;20044;-75
2022/06/18 03:52:57;;;;;;;73.70;40.95;;;17.20;99.90;;;;;;5055020;28;20102;-75
2022/06/18 03:55:24;;;;;;;77.35;39.38;;;17.20;99.90;;;;;;5037313;28;20378;-75
2022/06/18 03:57:50;;;;;;;73.47;36.15;;;17.20;99.90;;;;;;5037227;28;20095;-75
2022/06/18 04:00:19;;;;;;;74.68;35.90;;;17.30;99.90;;;;;;5054900;28;20439;-75
2022/06/18 04:02:45;;;;;;;79.53;39.55;;;17.30;99.90;;;;;;5036834;28;20045;-75
2022/06/18 04:05:11;;;;;;;75.43;37.35;;;17.40;99.90;;;;;;5036752;28;20048;-75
2022/06/18 04:07:38;;;;;;;75.20;37.05;;;17.40;99.90;;;;;;5054681;28;20079;-75
2022/06/18 04:10:06;;;;;;;76.82;38.55;;;17.40;99.90;;;;;;5054509;28;20084;-75
2022/06/18 04:12:32;;;;;;;77.40;36.78;;;17.40;99.90;;;;;;5054587;28;20055;-75
2022/06/18 04:14:58;;;;;;;68.63;35.92;;;17.40;99.90;;;;;;5036700;28;20045;-75
2022/06/18 04:17:24;;;;;;;71.47;35.22;;;17.50;99.90;;;;;;5054529;28;20053;-75
2022/06/18 04:19:50;;;;;;;77.03;35.53;;;17.50;99.90;;;;;;5054408;28;20073;-75
2022/06/18 04:22:16;;;;;;;72.05;37.08;;;17.50;99.90;;;;;;5036517;28;20049;-75
2022/06/18 04:24:42;;;;;;;70.25;35.83;;;17.50;99.90;;;;;;5054511;28;20044;-75
2022/06/18 04:27:07;;;;;;;68.30;32.92;;;17.50;99.90;;;;;;5054412;28;20049;-75
2022/06/18 04:29:34;;;;;;;70.80;35.33;;;17.60;99.90;;;;;;5054583;28;20089;-75
2022/06/18 04:32:00;;;;;;;69.90;35.38;;;17.70;99.90;;;;;;5054303;28;20048;-75
2022/06/18 04:34:27;;;;;;;61.35;32.53;;;17.80;99.90;;;;;;5036559;28;20056;-75
2022/06/18 04:36:52;;;;;;;64.97;33.40;;;17.80;99.90;;;;;;5054375;28;20033;-75
2022/06/18 04:39:18;;;;;;;68.57;31.88;;;17.80;99.90;;;;;;5036412;28;20045;-75
2022/06/18 04:41:44;;;;;;;63.75;32.13;;;17.90;99.90;;;;;;5054341;28;20435;-75
2022/06/18 04:44:09;;;;;;;63.65;31.88;;;18.00;99.90;;;;;;5035897;28;20060;-75
2022/06/18 04:46:35;;;;;;;65.55;30.92;;;18.00;99.90;;;;;;5054083;28;20048;-75
2022/06/18 04:49:01;;;;;;;59.10;30.05;;;18.10;99.90;;;;;;5036057;28;20091;-75
2022/06/18 04:51:27;;;;;;;57.08;29.13;;;18.10;99.90;;;;;;5054024;28;20041;-75
2022/06/18 04:53:53;;;;;;;63.65;29.90;;;18.20;99.90;;;;;;5054032;28;20128;-75
2022/06/18 04:56:19;;;;;;;66.35;29.90;;;18.30;99.90;;;;;;5053991;28;20052;-75
2022/06/18 04:58:44;;;;;;;60.47;28.98;;;18.30;99.90;;;;;;5035808;28;20424;-75
2022/06/18 05:01:19;;;;;;;61.35;28.92;;;18.40;99.90;;;;;;5053322;28;20476;-75
2022/06/18 05:03:45;;;;;;;59.22;26.90;;;18.50;99.90;;;;;;5035833;28;20049;-75
2022/06/18 05:06:11;;;;;;;56.22;27.77;;;18.50;99.90;;;;;;5035641;28;20048;-75
2022/06/18 05:08:37;;;;;;;57.75;27.13;;;18.70;99.90;;;;;;5053438;28;20151;-75
2022/06/18 05:11:03;;;;;;;46.67;24.67;;;18.70;99.90;;;;;;5035652;28;20048;-75
2022/06/18 05:13:31;;;;;;;64.25;28.73;;;18.80;99.90;;;;;;5053771;28;20101;-75
2022/06/18 05:15:58;;;;;;;53.53;26.17;;;18.80;99.90;;;;;;5035837;28;20045;-75
2022/06/18 05:18:28;;;;;;;55.30;25.83;;;18.80;99.90;;;;;;5035901;28;20041;-75
2022/06/18 05:20:54;;;;;;;52.08;24.10;;;18.90;99.90;;;;;;5035499;28;20107;-76
2022/06/18 05:23:20;;;;;;;56.42;24.92;;;18.90;99.90;;;;;;5053680;28;20040;-75
2022/06/18 05:25:46;;;;;;;51.72;26.40;;;19.00;99.90;;;;;;5053564;28;20055;-76
2022/06/18 05:28:13;;;;;;;55.60;24.98;;;18.90;99.90;;;;;;5035471;28;20550;-76
2022/06/18 05:30:40;;;;;;;56.35;25.67;;;18.90;99.90;;;;;;5053450;28;20045;-76
2022/06/18 05:33:07;;;;;;;45.25;23.90;;;19.00;99.90;;;;;;5035423;28;20049;-75
2022/06/18 05:35:35;;;;;;;57.15;24.58;;;18.90;99.90;;;;;;5035248;28;20550;-75
2022/06/18 05:38:01;;;;;;;57.08;24.67;;;19.00;99.90;;;;;;5053503;28;20041;-75
2022/06/18 05:40:27;;;;;;;51.88;24.20;;;19.10;99.90;;;;;;5053413;28;20033;-76
2022/06/18 05:42:55;;;;;;;60.78;25.63;;;19.20;99.90;;;;;;5035135;28;20586;-76
2022/06/18 05:45:21;;;;;;;55.47;24.90;;;19.20;99.90;;;;;;5053318;28;20051;-75
2022/06/18 05:47:48;;;;;;;51.42;25.15;;;19.20;99.90;;;;;;5053123;28;20448;-75
2022/06/18 05:50:17;;;;;;;51.58;23.55;;;19.30;99.90;;;;;;5053084;28;20067;-75
2022/06/18 05:52:44;;;;;;;53.58;24.25;;;19.40;99.90;;;;;;5035181;28;20090;-75
2022/06/18 05:55:10;;;;;;;51.88;24.08;;;19.50;99.90;;;;;;5035398;28;20559;-76
2022/06/18 05:57:50;;;;;;;43.28;23.50;;;19.60;99.90;;;;;;5035292;28;20140;-75
2022/06/18 06:00:18;;;;;;;47.75;21.80;;;19.60;99.90;;;;;;5053079;28;20071;-75
2022/06/18 06:02:44;;;;;;;42.00;20.60;;;19.60;99.90;;;;;;5052932;28;20523;-75
2022/06/18 06:05:10;;;;;;;44.28;20.05;;;19.70;99.90;;;;;;5053102;28;20041;-76
2022/06/18 06:07:35;;;;;;;37.40;19.48;;;19.80;99.90;;;;;;5053094;28;20041;-76
2022/06/18 06:12:45;;;;;;;35.90;15.43;;;20.00;99.90;;;;;;5053792;28;20049;-76
2022/06/18 06:15:11;;;;;;;39.45;16.15;;;20.10;99.90;;;;;;5038801;28;20132;-76
2022/06/18 06:17:36;;;;;;;31.55;14.88;;;20.20;99.90;;;;;;5056705;28;20049;-75
2022/06/18 06:20:15;;;;;;;30.85;13.93;;;20.10;99.90;;;;;;5038900;28;20037;-75
2022/06/18 06:22:41;;;;;;;28.38;12.45;;;20.30;99.90;;;;;;5038938;28;20048;-75
2022/06/18 06:25:07;;;;;;;27.08;13.23;;;20.30;99.90;;;;;;5056794;28;20048;-75
2022/06/18 06:27:32;;;;;;;32.13;13.18;;;20.40;99.90;;;;;;5056406;28;20048;-75
2022/06/18 06:29:58;;;;;;;23.35;12.00;;;20.50;99.90;;;;;;5038933;28;20049;-75
2022/06/18 06:32:24;;;;;;;29.65;13.00;;;20.70;99.90;;;;;;5038689;28;20080;-75
2022/06/18 06:34:49;;;;;;;28.35;12.50;;;20.70;99.90;;;;;;5056646;28;20045;-75
2022/06/18 06:37:15;;;;;;;29.15;13.13;;;20.70;99.90;;;;;;5056369;28;20037;-75
2022/06/18 06:39:40;;;;;;;31.27;12.60;;;20.80;99.90;;;;;;5056184;28;20404;-75
2022/06/18 06:42:06;;;;;;;30.10;12.65;;;20.80;99.90;;;;;;5056600;28;20052;-75
2022/06/18 06:44:32;;;;;;;28.23;12.32;;;21.00;99.90;;;;;;5056054;28;20405;-75
2022/06/18 06:46:59;;;;;;;22.13;9.77;;;21.00;99.90;;;;;;5056422;28;20482;-77
2022/06/18 06:49:25;;;;;;;17.45;9.23;;;21.10;99.90;;;;;;5038180;28;20136;-76
2022/06/18 06:51:53;;;;;;;23.92;8.95;;;21.20;99.90;;;;;;5056083;28;20461;-76
2022/06/18 06:54:19;;;;;;;19.40;8.75;;;21.20;99.90;;;;;;5038199;28;20040;-76
2022/06/18 06:59:29;;;;;;;20.67;8.02;;;21.40;99.90;;;;;;5056221;28;20124;-75
2022/06/18 07:01:55;;;;;;;17.77;8.05;;;21.60;99.90;;;;;;5056167;28;20452;-75
2022/06/18 07:04:21;;;;;;;18.40;7.15;;;21.60;99.90;;;;;;5039860;28;20471;-75
2022/06/18 07:06:47;;;;;;;15.35;6.78;;;21.70;99.90;;;;;;5064245;28;20457;-75
2022/06/18 07:09:12;;;;;;;20.23;7.30;;;21.70;99.90;;;;;;5037911;28;20160;-75
2022/06/18 07:11:38;;;;;;;15.60;7.05;;;21.80;99.90;;;;;;5055740;28;20554;-75
2022/06/18 07:14:05;;;;;;;21.00;8.30;;;21.80;99.90;;;;;;5037683;28;20045;-75
2022/06/18 07:16:30;;;;;;;19.25;7.50;;;21.70;99.90;;;;;;5055596;28;20052;-75
2022/06/18 07:18:57;;;;;;;16.63;7.43;;;21.70;99.90;;;;;;5037596;28;20049;-75
2022/06/18 07:21:22;;;;;;;23.00;8.25;;;21.70;99.90;;;;;;5055319;28;20049;-75
2022/06/18 07:23:49;;;;;;;19.67;6.82;;;21.70;99.90;;;;;;5055387;28;20037;-75
2022/06/18 07:26:17;;;;;;;16.88;6.72;;;21.80;99.90;;;;;;5036692;28;20094;-75
2022/06/18 07:28:43;;;;;;;15.20;7.13;;;21.80;99.90;;;;;;5037443;28;20127;-75
2022/06/18 07:31:27;;;;;;;18.88;7.03;;;21.80;99.90;;;;;;5055442;28;20094;-75
2022/06/18 07:33:53;;;;;;;15.90;6.65;;;21.60;99.90;;;;;;5037545;28;20435;-75
2022/06/18 07:36:19;;;;;;;16.17;7.93;;;21.40;99.90;;;;;;5054953;28;20576;-75
2022/06/18 07:38:45;;;;;;;17.42;8.13;;;21.40;99.90;;;;;;5037135;28;20128;-75
2022/06/18 07:41:14;;;;;;;22.88;7.35;;;21.30;99.90;;;;;;5055173;28;20045;-75
2022/06/18 07:43:44;;;;;;;19.75;7.63;;;21.20;99.90;;;;;;5033668;28;20049;-75
2022/06/18 07:46:11;;;;;;;22.88;8.20;;;21.20;99.90;;;;;;5033582;28;20049;-75
2022/06/18 07:48:39;;;;;;;22.00;8.25;;;21.10;99.90;;;;;;5033684;28;20077;-75
2022/06/18 07:51:06;;;;;;;17.00;7.80;;;21.10;99.90;;;;;;5034903;28;20053;-75
2022/06/18 07:53:32;;;;;;;17.25;6.47;;;21.10;99.90;;;;;;5035056;28;20049;-75
2022/06/18 07:55:58;;;;;;;19.55;7.13;;;21.20;99.90;;;;;;5033653;28;20056;-75
2022/06/18 07:58:26;;;;;;;19.13;6.75;;;21.20;99.90;;;;;;5034852;28;20042;-75
2022/06/18 08:00:52;;;;;;;15.15;6.07;;;21.30;99.90;;;;;;5034860;28;20045;-75
2022/06/18 08:03:18;;;;;;;15.15;6.85;;;21.40;99.90;;;;;;5033695;28;20045;-76
2022/06/18 08:05:45;;;;;;;15.05;5.88;;;21.60;99.90;;;;;;5034569;28;20060;-75
2022/06/18 08:08:12;;;;;;;17.50;5.97;;;21.60;99.90;;;;;;5034601;28;20053;-75
2022/06/18 08:10:39;;;;;;;16.25;5.63;;;21.60;99.90;;;;;;5033382;28;20045;-75
2022/06/18 08:13:05;;;;;;;16.52;6.15;;;21.60;99.90;;;;;;5033458;28;20132;-75
2022/06/18 08:15:31;;;;;;;17.05;5.05;;;21.80;99.90;;;;;;5033244;28;20095;-75
2022/06/18 08:17:58;;;;;;;16.20;5.85;;;21.70;99.90;;;;;;5036548;28;20037;-75
2022/06/18 08:20:25;;;;;;;16.17;5.43;;;21.70;99.90;;;;;;5054374;28;20045;-75
2022/06/18 08:22:55;;;;;;;14.95;5.15;;;21.70;99.90;;;;;;5054422;28;20075;-75
2022/06/18 08:25:23;;;;;;;17.25;5.45;;;21.60;99.90;;;;;;5054167;28;20036;-75
2022/06/18 08:27:50;;;;;;;12.63;5.22;;;21.80;99.90;;;;;;5053064;28;20043;-75
2022/06/18 08:30:16;;;;;;;16.13;6.47;;;21.70;99.90;;;;;;5052855;28;20044;-75
2022/06/18 08:32:43;;;;;;;13.70;5.03;;;21.70;99.90;;;;;;5052687;28;20074;-75
2022/06/18 08:35:08;;;;;;;14.30;4.97;;;21.80;99.90;;;;;;5050588;28;20481;-75
2022/06/18 08:37:34;;;;;;;19.00;4.70;;;21.80;99.90;;;;;;5042697;28;20033;-75
2022/06/18 08:40:00;;;;;;;12.98;5.53;;;21.80;99.90;;;;;;5045345;28;20040;-75
2022/06/18 08:42:42;;;;;;;19.52;5.40;;;21.80;99.90;;;;;;5042673;28;20476;-75
2022/06/18 08:45:20;;;;;;;12.17;4.67;;;21.60;99.90;;;;;;5043682;28;20049;-75
2022/06/18 08:48:20;;;;;;;13.48;5.00;;;21.80;99.90;;;;;;5041670;28;20485;-75
2022/06/18 08:50:50;;;;;;;17.67;5.68;;;21.90;99.90;;;;;;5047869;28;20053;-75
2022/06/18 08:53:22;;;;;;;14.02;4.28;;;22.20;99.90;;;;;;5052744;28;20081;-75
2022/06/18 08:55:56;;;;;;;15.25;4.40;;;22.00;99.90;;;;;;5046554;28;20049;-75
2022/06/18 08:59:07;;;;;;;13.80;4.15;;;22.20;99.90;;;;;;5037616;28;20132;-75
2022/06/18 09:01:47;;;;;;;12.68;5.15;;;22.30;99.90;;;;;;5041734;28;20052;-75
2022/06/18 09:04:18;;;;;;;20.38;4.43;;;22.40;99.90;;;;;;5053494;28;20045;-75
2022/06/18 09:06:50;;;;;;;17.60;4.65;;;22.40;99.90;;;;;;5053764;28;20059;-75
2022/06/18 09:09:44;;;;;;;14.52;5.53;;;22.40;99.90;;;;;;5053436;28;20049;-75
2022/06/18 09:12:14;;;;;;;16.50;5.10;;;22.40;99.90;;;;;;5051998;28;20048;-75
2022/06/18 09:15:08;;;;;;;11.48;4.53;;;22.30;99.90;;;;;;5052117;28;20049;-75
2022/06/18 09:17:39;;;;;;;20.65;5.35;;;22.40;99.90;;;;;;5053579;28;20056;-75
2022/06/18 09:20:21;;;;;;;12.45;3.28;;;22.40;99.90;;;;;;5051517;28;20044;-75
2022/06/18 09:22:52;;;;;;;8.63;3.75;;;22.60;99.90;;;;;;5052049;28;20060;-75
2022/06/18 09:25:20;;;;;;;12.15;3.20;;;22.70;99.90;;;;;;5051979;28;20037;-75
2022/06/18 09:28:09;;;;;;;21.15;3.70;;;22.80;99.90;;;;;;5051897;28;20435;-75
2022/06/18 09:30:41;;;;;;;13.32;3.80;;;22.90;99.90;;;;;;5050972;28;20087;-75
2022/06/18 09:33:12;;;;;;;12.15;3.67;;;22.80;99.90;;;;;;5051855;28;20120;-75
2022/06/18 09:35:52;;;;;;;14.05;3.38;;;23.00;99.90;;;;;;5053399;28;20045;-75
2022/06/18 09:38:42;;;;;;;11.40;3.40;;;22.90;99.90;;;;;;5052181;28;20075;-75
2022/06/18 09:41:22;;;;;;;21.23;4.03;;;23.10;99.90;;;;;;5052017;28;20550;-75
2022/06/18 09:44:07;;;;;;;15.63;3.50;;;23.10;99.90;;;;;;5062006;28;20053;-75
2022/06/18 09:46:45;;;;;;;14.93;3.30;;;23.10;99.90;;;;;;5073319;28;20048;-75
2022/06/18 09:49:11;;;;;;;14.43;3.33;;;23.30;99.90;;;;;;5068960;28;20127;-75
2022/06/18 09:51:48;;;;;;;9.45;2.88;;;23.30;99.90;;;;;;5077268;28;20115;-74
2022/06/18 09:54:17;;;;;;;12.95;3.13;;;23.30;99.90;;;;;;5059511;28;20670;-75
2022/06/18 09:57:01;;;;;;;11.85;3.15;;;23.20;99.90;;;;;;5077226;28;20032;-75
2022/06/18 10:00:09;;;;;;;11.85;3.25;;;23.30;99.90;;;;;;5069712;28;20484;-75
2022/06/18 10:02:41;;;;;;;12.52;3.30;;;23.30;99.90;;;;;;5061131;28;20049;-75
2022/06/18 10:07:58;;;;;;;17.27;3.78;;;23.30;99.90;;;;;;5062111;28;19965;-75
2022/06/18 10:10:27;;;;;;;12.27;3.25;;;23.40;99.90;;;;;;5066577;28;20045;-75
2022/06/18 10:12:58;;;;;;;17.15;3.97;;;23.30;99.90;;;;;;5047219;28;20098;-75
2022/06/18 10:15:26;;;;;;;16.03;3.73;;;23.40;99.90;;;;;;5066519;28;20055;-76
2022/06/18 10:18:31;;;;;;;14.27;3.20;;;23.50;99.90;;;;;;5067543;28;20064;-75
2022/06/18 10:21:04;;;;;;;12.40;3.40;;;23.60;99.90;;;;;;5067776;28;20040;-75
2022/06/18 10:23:40;;;;;;;21.65;3.97;;;23.70;99.90;;;;;;5056018;28;20047;-75
2022/06/18 10:26:24;;;;;;;10.55;3.50;;;23.90;99.90;;;;;;5052502;28;20040;-75
2022/06/18 10:29:00;;;;;;;9.75;2.30;;;24.00;99.90;;;;;;5069466;28;20128;-76
2022/06/18 10:31:42;;;;;;;11.82;2.70;;;24.00;99.90;;;;;;5049154;28;20056;-76
2022/06/18 10:34:38;;;;;;;11.38;2.38;;;24.20;99.90;;;;;;5066979;28;20036;-75
2022/06/18 10:37:20;;;;;;;15.63;3.10;;;24.00;99.90;;;;;;5066140;28;20060;-76
2022/06/18 10:40:05;;;;;;;11.93;2.77;;;24.10;99.90;;;;;;5058816;28;20496;-76
2022/06/18 10:43:02;;;;;;;11.68;2.80;;;24.10;99.90;;;;;;5056449;28;20037;-77
2022/06/18 10:45:47;;;;;;;12.13;2.88;;;24.20;99.90;;;;;;5037847;28;20056;-75
2022/06/18 10:48:17;;;;;;;22.70;4.82;;;24.20;99.90;;;;;;5056521;28;20538;-75
2022/06/18 10:50:50;;;;;;;18.25;3.45;;;24.10;99.90;;;;;;5075933;28;20480;-75
2022/06/18 10:53:18;;;;;;;12.45;2.65;;;24.10;99.90;;;;;;5073361;28;20044;-75
2022/06/18 10:55:55;;;;;;;20.35;3.83;;;23.90;99.90;;;;;;5074899;28;20054;-75
2022/06/18 10:58:20;;;;;;;14.43;3.05;;;23.90;99.90;;;;;;5074369;28;20403;-75
2022/06/18 11:00:59;;;;;;;13.05;2.92;;;23.90;99.90;;;;;;5068280;28;20040;-75
2022/06/18 11:03:29;;;;;;;15.18;2.65;;;23.70;99.90;;;;;;5075685;28;20516;-75
2022/06/18 11:05:56;;;;;;;10.70;2.28;;;23.80;99.90;;;;;;5057684;28;20047;-75
2022/06/18 11:08:28;;;;;;;16.55;3.95;;;23.90;99.90;;;;;;5075685;28;20041;-75
2022/06/18 11:11:13;;;;;;;11.70;2.47;;;23.80;99.90;;;;;;5075608;28;20483;-76
2022/06/18 11:13:41;;;;;;;18.05;3.70;;;23.80;99.90;;;;;;5074389;28;20041;-89
2022/06/18 11:16:24;;;;;;;15.68;2.90;;;23.90;99.90;;;;;;5074266;28;20381;-86
2022/06/18 11:19:01;;;;;;;14.40;2.42;;;24.00;99.90;;;;;;5075493;28;20073;-88
2022/06/18 11:21:34;;;;;;;17.80;2.78;;;24.00;99.90;;;;;;5065734;28;20040;-85
2022/06/18 11:24:02;;;;;;;14.65;2.58;;;24.00;99.90;;;;;;5057527;28;20079;-83
2022/06/18 11:26:29;;;;;;;17.10;3.05;;;24.10;99.90;;;;;;5057378;28;20553;-85
2022/06/18 11:29:04;;;;;;;14.95;2.95;;;24.10;99.90;;;;;;5069696;28;20036;-84
2022/06/18 11:31:35;;;;;;;15.40;3.47;;;24.00;99.90;;;;;;5075183;28;20472;-84
2022/06/18 11:34:15;;;;;;;18.38;3.88;;;24.00;99.90;;;;;;5075231;28;20044;-86
2022/06/18 11:36:47;;;;;;;15.70;3.45;;;24.00;99.90;;;;;;5061309;28;20385;-76
2022/06/18 11:39:40;;;;;;;18.15;2.88;;;24.10;99.90;;;;;;5071257;28;20063;-76
2022/06/18 11:42:18;;;;;;;21.38;4.25;;;24.00;99.90;;;;;;5048382;28;20063;-76
2022/06/18 11:44:43;;;;;;;14.65;3.35;;;24.10;99.90;;;;;;5057773;28;20061;-76
2022/06/18 11:47:25;;;;;;;17.98;3.83;;;24.10;99.90;;;;;;5037176;28;20072;-75
2022/06/18 11:49:56;;;;;;;29.35;3.83;;;24.10;99.90;;;;;;5059756;28;20075;-76
2022/06/18 11:52:35;;;;;;;20.60;3.47;;;24.20;99.90;;;;;;5075127;28;20090;-75
2022/06/18 11:55:20;;;;;;;17.00;3.72;;;24.00;99.90;;;;;;5056911;28;20464;-75
2022/06/18 11:57:49;;;;;;;15.98;2.25;;;23.90;99.90;;;;;;5056913;28;20059;-75
2022/06/18 12:00:22;;;;;;;17.88;3.58;;;24.00;99.90;;;;;;5074067;28;20384;-75
2022/06/18 12:02:56;;;;;;;15.68;3.03;;;23.90;99.90;;;;;;5065790;28;20476;-76
2022/06/18 12:05:50;;;;;;;15.93;2.35;;;23.70;99.90;;;;;;5056574;28;20049;-75
2022/06/18 12:08:19;;;;;;;13.23;2.42;;;23.80;99.90;;;;;;5056642;28;20059;-75
2022/06/18 12:11:02;;;;;;;17.02;2.50;;;23.90;99.90;;;;;;5056131;28;20051;-76
2022/06/18 12:13:34;;;;;;;20.48;2.90;;;23.90;99.90;;;;;;5070138;28;20036;-75
2022/06/18 12:16:26;;;;;;;21.43;3.10;;;23.80;99.90;;;;;;5041837;28;20079;-75
2022/06/18 12:19:01;;;;;;;25.40;3.43;;;23.70;99.90;;;;;;5036521;28;20292;-75
2022/06/18 12:21:45;;;;;;;16.35;2.58;;;24.00;99.90;;;;;;5034951;28;20049;-75
2022/06/18 12:24:19;;;;;;;21.80;3.05;;;23.90;99.90;;;;;;5034646;28;20049;-75
2022/06/18 12:27:10;;;;;;;17.60;3.30;;;23.80;99.90;;;;;;5035930;28;20045;-76
2022/06/18 12:29:35;;;;;;;21.30;3.25;;;23.80;99.90;;;;;;5054302;28;20056;-75
2022/06/18 12:32:16;;;;;;;14.68;2.97;;;23.60;99.90;;;;;;5036475;28;20147;-75
2022/06/18 12:35:00;;;;;;;19.02;3.72;;;23.60;99.90;;;;;;5054331;28;20090;-75
2022/06/18 12:37:43;;;;;;;15.13;2.83;;;23.40;99.90;;;;;;5036155;28;20098;-75
2022/06/18 12:40:30;;;;;;;22.05;3.80;;;23.40;99.90;;;;;;5054266;28;20135;-75
2022/06/18 12:43:16;;;;;;;21.67;3.47;;;23.50;99.90;;;;;;5036089;28;20156;-75
2022/06/18 12:46:24;;;;;;;24.42;4.13;;;23.40;99.90;;;;;;5054101;28;20051;-75
2022/06/18 12:49:03;;;;;;;20.08;3.38;;;23.40;99.90;;;;;;5040234;28;20057;-75
2022/06/18 12:51:52;;;;;;;26.05;3.03;;;23.30;99.90;;;;;;5035926;28;20488;-75
2022/06/18 12:54:44;;;;;;;17.13;2.67;;;23.40;99.90;;;;;;5053860;28;20041;-75
2022/06/18 12:57:55;;;;;;;20.88;3.58;;;23.30;99.90;;;;;;5035760;28;20045;-75
2022/06/18 13:00:29;;;;;;;25.17;2.97;;;23.30;99.90;;;;;;4995742;28;20081;-75
2022/06/18 13:03:07;;;;;;;21.90;3.40;;;23.30;99.90;;;;;;5032521;28;20052;-75
2022/06/18 13:05:49;;;;;;;22.50;4.05;;;23.30;99.90;;;;;;5035866;28;20049;-76
2022/06/18 13:08:39;;;;;;;26.55;3.85;;;23.60;99.90;;;;;;5035622;28;20053;-75